Time;durP1;ratioP1;P1;durP2;ratioP2;P2;SDS_P1;SDS_P2;PMS_P1;PMS_P2;Temp;Humidity;BMP_temperature;BMP_pressure;BME280_temperature;BME280_humidity;BME280_pressure;Samples;Min_cycle;Max_cycle;Signal;HPM_P1;HPM_P2
2023/10/17 00:01:20;;;;;;;0.30;0.20;;;6.80;99.90;;;;;;5046279;28;20251;-75
2023/10/17 00:03:46;;;;;;;0.30;0.20;;;6.80;99.90;;;;;;5045298;28;20186;-75
2023/10/17 00:06:22;;;;;;;0.30;0.20;;;6.80;99.90;;;;;;5044932;28;20558;-89
2023/10/17 00:08:50;;;;;;;0.30;0.20;;;6.70;99.90;;;;;;5046106;28;20166;-89
2023/10/17 00:11:17;;;;;;;0.30;0.20;;;6.70;99.90;;;;;;5045169;28;20759;-88
2023/10/17 00:13:59;;;;;;;0.30;0.20;;;6.70;99.90;;;;;;5045950;28;20192;-87
2023/10/17 00:16:30;;;;;;;0.30;0.20;;;6.70;99.90;;;;;;5045737;28;20210;-75
2023/10/17 00:19:01;;;;;;;0.30;0.20;;;6.60;99.90;;;;;;5046551;28;20249;-88
2023/10/17 00:21:27;;;;;;;0.30;0.20;;;6.60;99.90;;;;;;5046423;28;20178;-74
2023/10/17 00:23:53;;;;;;;0.30;0.20;;;6.60;99.90;;;;;;5046173;28;20202;-88
2023/10/17 00:26:19;;;;;;;0.30;0.20;;;6.60;99.90;;;;;;5045998;28;20462;-74
2023/10/17 00:28:48;;;;;;;0.30;0.20;;;6.50;99.90;;;;;;5046226;28;20253;-87
2023/10/17 00:31:14;;;;;;;0.30;0.20;;;6.40;99.90;;;;;;5045863;28;20475;-88
2023/10/17 00:33:41;;;;;;;0.30;0.30;;;6.40;99.90;;;;;;5044817;28;20260;-87
2023/10/17 00:36:14;;;;;;;0.30;0.20;;;6.30;99.90;;;;;;5045264;28;20994;-88
2023/10/17 00:38:43;;;;;;;0.30;0.20;;;6.30;99.90;;;;;;5045775;28;20177;-88
2023/10/17 00:41:16;;;;;;;0.30;0.20;;;6.20;99.90;;;;;;5044677;28;20201;-87
2023/10/17 00:43:42;;;;;;;0.30;0.20;;;6.20;99.90;;;;;;5044957;28;20192;-89
2023/10/17 00:46:09;;;;;;;0.30;0.20;;;6.20;99.90;;;;;;5044551;28;20197;-88
2023/10/17 00:48:35;;;;;;;0.30;0.30;;;6.20;99.90;;;;;;5046084;28;20212;-87
2023/10/17 00:51:08;;;;;;;0.30;0.20;;;6.10;99.90;;;;;;5045550;28;20196;-88
2023/10/17 00:53:39;;;;;;;0.30;0.20;;;6.20;99.90;;;;;;5044583;28;20186;-74
2023/10/17 00:56:06;;;;;;;0.30;0.20;;;6.20;99.90;;;;;;5045802;28;20462;-74
2023/10/17 00:58:33;;;;;;;0.30;0.20;;;6.20;99.90;;;;;;5046038;28;20253;-75
2023/10/17 01:01:09;;;;;;;0.30;0.20;;;6.20;99.90;;;;;;5044111;28;20209;-75
2023/10/17 01:03:44;;;;;;;0.30;0.20;;;6.30;99.90;;;;;;5045688;28;20208;-89
2023/10/17 01:08:56;;;;;;;0.30;0.20;;;6.30;99.90;;;;;;5050302;28;20166;-88
2023/10/17 01:11:22;;;;;;;0.30;0.20;;;6.20;99.90;;;;;;5049338;28;20229;-89
2023/10/17 01:13:52;;;;;;;0.30;0.20;;;6.10;99.90;;;;;;5048186;28;20178;-89
2023/10/17 01:16:19;;;;;;;0.30;0.20;;;6.10;99.90;;;;;;5049058;28;20227;-89
2023/10/17 01:18:45;;;;;;;0.30;0.20;;;6.00;99.90;;;;;;5048001;28;20184;-75
2023/10/17 01:21:13;;;;;;;0.30;0.20;;;6.00;99.90;;;;;;5047551;28;20694;-75
2023/10/17 01:23:38;;;;;;;0.30;0.20;;;5.90;99.90;;;;;;5049471;28;20539;-88
2023/10/17 01:26:08;;;;;;;0.30;0.20;;;5.90;99.90;;;;;;5049166;28;20476;-75
2023/10/17 01:28:37;;;;;;;0.30;0.20;;;5.80;99.90;;;;;;5049338;28;20178;-89
2023/10/17 01:31:03;;;;;;;0.30;0.20;;;5.80;99.90;;;;;;5048779;28;20190;-75
2023/10/17 01:33:29;;;;;;;0.30;0.20;;;5.90;99.90;;;;;;5049360;28;20178;-89
2023/10/17 01:36:00;;;;;;;0.30;0.20;;;5.90;99.90;;;;;;5048838;28;20197;-75
2023/10/17 01:38:28;;;;;;;0.30;0.20;;;5.90;99.90;;;;;;5047356;28;20409;-75
2023/10/17 01:40:59;;;;;;;0.30;0.20;;;5.80;99.90;;;;;;5049031;28;20508;-80
2023/10/17 01:43:24;;;;;;;0.30;0.20;;;5.80;99.90;;;;;;5049236;28;20244;-88
2023/10/17 01:45:50;;;;;;;0.30;0.20;;;5.80;99.90;;;;;;5049179;28;20639;-75
2023/10/17 01:48:16;;;;;;;0.30;0.20;;;5.80;99.90;;;;;;5048949;28;20268;-85
2023/10/17 01:50:44;;;;;;;0.30;0.20;;;5.80;99.90;;;;;;5048589;28;21167;-89
2023/10/17 01:53:12;;;;;;;0.30;0.20;;;5.90;99.90;;;;;;5047120;28;20186;-89
2023/10/17 01:55:45;;;;;;;0.30;0.20;;;5.90;99.90;;;;;;5047146;28;20201;-88
2023/10/17 01:58:15;;;;;;;0.30;0.20;;;5.90;99.90;;;;;;5047396;28;20198;-74
2023/10/17 02:00:42;;;;;;;0.30;0.20;;;5.90;99.90;;;;;;5048710;28;20190;-74
2023/10/17 02:03:12;;;;;;;0.30;0.20;;;5.90;99.90;;;;;;5049292;28;20235;-76
2023/10/17 02:05:38;;;;;;;0.30;0.20;;;5.80;99.90;;;;;;5048244;28;20193;-75
2023/10/17 02:08:05;;;;;;;0.30;0.20;;;5.70;99.90;;;;;;5046988;28;20185;-89
2023/10/17 02:10:31;;;;;;;0.30;0.20;;;5.70;99.90;;;;;;5047919;28;20841;-75
2023/10/17 02:12:59;;;;;;;0.30;0.20;;;5.80;99.90;;;;;;5048432;28;20201;-75
2023/10/17 02:15:26;;;;;;;0.30;0.20;;;5.80;99.90;;;;;;5046473;28;20267;-89
2023/10/17 02:17:53;;;;;;;0.30;0.20;;;5.80;99.90;;;;;;5048098;28;20201;-76
2023/10/17 02:20:52;;;;;;;0.30;0.20;;;5.80;99.90;;;;;;5047173;28;20204;-89
2023/10/17 02:23:19;;;;;;;0.30;0.20;;;5.90;99.90;;;;;;5046439;28;20198;-90
2023/10/17 02:25:46;;;;;;;0.30;0.20;;;5.90;99.90;;;;;;5048016;28;20224;-89
2023/10/17 02:28:12;;;;;;;0.30;0.20;;;5.90;99.90;;;;;;5046682;28;20178;-88
2023/10/17 02:30:38;;;;;;;0.30;0.20;;;5.80;99.90;;;;;;5048054;28;20535;-88
2023/10/17 02:33:11;;;;;;;0.30;0.20;;;5.80;99.90;;;;;;5047635;28;20178;-76
2023/10/17 02:35:41;;;;;;;0.30;0.20;;;5.80;99.90;;;;;;5047812;28;21009;-75
2023/10/17 02:38:08;;;;;;;0.30;0.20;;;5.80;99.90;;;;;;5047158;28;20209;-89
2023/10/17 02:40:34;;;;;;;0.30;0.20;;;5.80;99.90;;;;;;5046011;28;20190;-89
2023/10/17 02:43:01;;;;;;;0.30;0.20;;;5.80;99.90;;;;;;5047723;28;20214;-88
2023/10/17 02:45:27;;;;;;;0.30;0.30;;;5.80;99.90;;;;;;5046325;28;20380;-75
2023/10/17 02:47:57;;;;;;;0.30;0.20;;;5.80;99.90;;;;;;5046200;28;20581;-89
2023/10/17 02:50:41;;;;;;;0.30;0.20;;;5.80;99.90;;;;;;5047704;28;20217;-89
2023/10/17 02:53:12;;;;;;;0.30;0.20;;;5.80;99.90;;;;;;5047244;28;20516;-89
2023/10/17 02:55:38;;;;;;;0.30;0.20;;;5.80;99.90;;;;;;5046492;28;20230;-76
2023/10/17 02:58:04;;;;;;;0.30;0.20;;;5.80;99.90;;;;;;5047301;28;20580;-88
2023/10/17 03:00:44;;;;;;;0.30;0.20;;;5.90;99.90;;;;;;5047505;28;20248;-88
2023/10/17 03:03:12;;;;;;;0.30;0.20;;;6.00;99.90;;;;;;5047478;28;20654;-75
2023/10/17 03:05:50;;;;;;;0.30;0.20;;;6.20;99.90;;;;;;5047660;28;20284;-75
2023/10/17 03:08:17;;;;;;;0.30;0.20;;;6.40;99.90;;;;;;5046164;28;20705;-90
2023/10/17 03:10:43;;;;;;;0.30;0.20;;;6.60;99.90;;;;;;5045644;28;20233;-76
2023/10/17 03:13:23;;;;;;;0.30;0.20;;;6.70;99.90;;;;;;5046161;28;20650;-89
2023/10/17 03:16:00;;;;;;;0.30;0.20;;;6.80;99.90;;;;;;5047258;28;20440;-87
2023/10/17 03:18:26;;;;;;;0.30;0.20;;;6.90;99.90;;;;;;5046914;28;20165;-90
2023/10/17 03:20:52;;;;;;;0.30;0.20;;;7.00;99.90;;;;;;5045192;28;20739;-89
2023/10/17 03:23:19;;;;;;;0.30;0.20;;;7.10;99.90;;;;;;5045380;28;20181;-88
2023/10/17 03:25:46;;;;;;;0.30;0.20;;;7.20;99.90;;;;;;5045592;28;20345;-76
2023/10/17 03:28:13;;;;;;;0.30;0.20;;;7.20;99.90;;;;;;5044996;28;20555;-77
2023/10/17 03:30:39;;;;;;;0.30;0.20;;;7.30;99.90;;;;;;5045566;28;20574;-83
2023/10/17 03:33:07;;;;;;;0.30;0.20;;;7.40;99.90;;;;;;5046790;28;20185;-88
2023/10/17 03:35:36;;;;;;;0.30;0.20;;;7.40;99.90;;;;;;5044832;28;20261;-88
2023/10/17 03:38:08;;;;;;;0.30;0.20;;;7.50;99.90;;;;;;5045441;28;20210;-90
2023/10/17 03:40:40;;;;;;;0.30;0.20;;;7.50;99.90;;;;;;5045160;28;20212;-91
2023/10/17 03:43:11;;;;;;;0.30;0.20;;;7.60;99.90;;;;;;5045475;28;20185;-90
2023/10/17 03:45:43;;;;;;;0.30;0.20;;;7.60;99.90;;;;;;5044926;28;20205;-90
2023/10/17 03:48:15;;;;;;;0.30;0.20;;;7.60;99.90;;;;;;5046474;28;20589;-77
2023/10/17 03:53:32;;;;;;;0.30;0.20;;;7.70;99.90;;;;;;5046098;28;20228;-81
2023/10/17 03:56:00;;;;;;;0.30;0.20;;;7.70;99.90;;;;;;5045595;28;20596;-82
2023/10/17 04:00:54;;;;;;;0.30;0.20;;;7.70;99.90;;;;;;5045288;28;20220;-80
2023/10/17 04:03:30;;;;;;;0.30;0.20;;;7.70;99.90;;;;;;5044861;28;20653;-80
2023/10/17 04:08:48;;;;;;;0.30;0.20;;;7.70;99.90;;;;;;5046056;28;20397;-80
2023/10/17 04:13:51;;;;;;;0.30;0.20;;;7.70;99.90;;;;;;5045484;28;20427;-82
2023/10/17 04:16:27;;;;;;;0.30;0.20;;;7.80;99.90;;;;;;5043694;28;20401;-82
2023/10/17 04:18:57;;;;;;;0.30;0.20;;;7.80;99.90;;;;;;5045571;28;20153;-80
2023/10/17 04:21:27;;;;;;;0.30;0.20;;;7.80;99.90;;;;;;5044568;28;20266;-80
2023/10/17 04:23:55;;;;;;;0.30;0.20;;;7.90;99.90;;;;;;5048721;28;20185;-80
2023/10/17 04:26:27;;;;;;;0.30;0.20;;;7.90;99.90;;;;;;5040291;28;20633;-81
2023/10/17 04:28:55;;;;;;;0.30;0.20;;;8.00;99.90;;;;;;5054039;28;20588;-80
2023/10/17 04:31:30;;;;;;;0.30;0.20;;;8.00;99.90;;;;;;5027530;28;20205;-82
2023/10/17 04:34:06;;;;;;;0.30;0.20;;;8.00;99.90;;;;;;5048460;28;20247;-80
2023/10/17 04:36:38;;;;;;;0.30;0.20;;;8.00;99.90;;;;;;5035923;28;20209;-82
2023/10/17 04:39:13;;;;;;;0.30;0.20;;;8.10;99.90;;;;;;5035849;28;20189;-80
2023/10/17 04:44:15;;;;;;;0.30;0.20;;;8.00;99.90;;;;;;5069104;28;20725;-80
2023/10/17 04:46:50;;;;;;;0.30;0.20;;;8.00;99.90;;;;;;5055583;28;20284;-80
2023/10/17 04:49:21;;;;;;;0.30;0.20;;;8.00;99.90;;;;;;5039424;28;20177;-83
2023/10/17 04:52:05;;;;;;;0.30;0.20;;;8.00;99.90;;;;;;5041420;28;20186;-81
2023/10/17 04:54:39;;;;;;;0.30;0.20;;;8.00;99.90;;;;;;5043757;28;20676;-82
2023/10/17 04:57:07;;;;;;;0.30;0.20;;;8.00;99.90;;;;;;5041073;28;20213;-83
2023/10/17 05:07:58;;;;;;;0.30;0.20;;;7.30;99.90;;;;;;5051953;28;20569;-82
2023/10/17 06:19:15;;;;;;;0.30;0.20;;;6.30;99.90;;;;;;5044354;28;20431;-80
2023/10/17 06:22:35;;;;;;;0.30;0.20;;;6.40;99.90;;;;;;5041685;28;20746;-79
2023/10/17 06:24:45;;;;;;;0.30;0.20;;;6.50;99.90;;;;;;5053002;28;20360;-78
2023/10/17 06:34:48;;;;;;;0.30;0.20;;;6.90;99.90;;;;;;5046091;28;20988;-82
2023/10/17 06:37:20;;;;;;;0.30;0.30;;;7.00;99.90;;;;;;5046712;28;20247;-80
2023/10/17 06:39:49;;;;;;;0.30;0.20;;;7.10;99.90;;;;;;5045111;28;20198;-80
2023/10/17 06:42:27;;;;;;;0.30;0.20;;;7.10;99.90;;;;;;5067370;28;20186;-82
2023/10/17 06:45:09;;;;;;;0.30;0.20;;;7.20;99.90;;;;;;5043530;28;20724;-81
2023/10/17 06:47:47;;;;;;;0.30;0.20;;;7.30;99.90;;;;;;5059413;28;20398;-78
2023/10/17 06:53:27;;;;;;;0.38;0.22;;;7.50;99.90;;;;;;5056573;28;20439;-79
2023/10/17 06:55:42;;;;;;;0.30;0.20;;;7.60;99.90;;;;;;5030815;28;20221;-77
2023/10/17 06:58:11;;;;;;;0.30;0.20;;;7.70;99.90;;;;;;5040524;28;20756;-80
2023/10/17 07:01:00;;;;;;;0.30;0.20;;;7.70;99.90;;;;;;5065854;28;20463;-79
2023/10/17 07:03:26;;;;;;;0.30;0.20;;;7.80;99.90;;;;;;5041574;28;20170;-79
2023/10/17 07:05:55;;;;;;;0.30;0.20;;;7.90;99.90;;;;;;5040243;28;20535;-80
2023/10/17 07:08:21;;;;;;;2.63;2.53;;;8.00;99.90;;;;;;5035849;28;20657;-81
2023/10/17 07:13:56;;;;;;;0.30;0.20;;;8.20;99.90;;;;;;5042125;28;20405;-78
2023/10/17 07:16:32;;;;;;;0.30;0.20;;;8.40;99.90;;;;;;5040915;28;20220;-79
2023/10/17 07:19:09;;;;;;;0.32;0.32;;;8.50;99.90;;;;;;5042102;28;20170;-81
2023/10/17 07:21:55;;;;;;;0.30;0.20;;;8.70;99.90;;;;;;5040187;28;20647;-81
2023/10/17 07:24:23;;;;;;;0.30;0.20;;;8.80;99.90;;;;;;5065555;28;20581;-81
2023/10/17 07:26:52;;;;;;;0.30;0.20;;;9.00;99.90;;;;;;5037008;28;20189;-79
2023/10/17 07:29:22;;;;;;;0.30;0.20;;;9.20;99.90;;;;;;5041138;28;20174;-79
2023/10/17 07:31:53;;;;;;;0.40;0.30;;;9.40;99.90;;;;;;5042060;28;20177;-81
2023/10/17 07:34:21;;;;;;;0.40;0.30;;;9.60;99.90;;;;;;5032114;28;20213;-79
2023/10/17 07:37:12;;;;;;;0.30;0.20;;;9.80;99.90;;;;;;5040618;28;20663;-81
2023/10/17 07:39:37;;;;;;;0.40;0.20;;;10.00;99.90;;;;;;5048525;28;20204;-81
2023/10/17 07:42:04;;;;;;;0.33;0.20;;;10.30;99.90;;;;;;5040761;28;20387;-81
2023/10/17 07:44:34;;;;;;;0.40;0.20;;;10.50;99.90;;;;;;5040812;28;20751;-81
2023/10/17 07:47:08;;;;;;;0.30;0.20;;;10.90;99.90;;;;;;5042301;28;20224;-81
2023/10/17 07:49:41;;;;;;;0.40;0.20;;;11.30;99.90;;;;;;5042210;28;20208;-79
2023/10/17 07:52:17;;;;;;;0.40;0.30;;;11.70;99.90;;;;;;5022936;28;20175;-79
2023/10/17 07:54:57;;;;;;;0.40;0.30;;;12.10;99.90;;;;;;5056674;28;20206;-80
2023/10/17 07:57:28;;;;;;;0.70;0.70;;;12.50;99.90;;;;;;5046862;28;20258;-79
2023/10/17 07:59:57;;;;;;;0.40;0.20;;;13.00;99.90;;;;;;5051870;28;20210;-81
2023/10/17 08:02:23;;;;;;;2.00;1.90;;;13.40;99.90;;;;;;5043422;28;20715;-81
2023/10/17 08:04:51;;;;;;;1.43;1.33;;;13.90;99.90;;;;;;5039515;28;20468;-80
2023/10/17 08:07:22;;;;;;;0.40;0.30;;;14.50;99.90;;;;;;5038758;28;20448;-80
2023/10/17 08:09:58;;;;;;;2.90;2.70;;;15.00;99.90;;;;;;5039870;28;20494;-81
2023/10/17 08:12:29;;;;;;;0.40;0.20;;;15.70;99.90;;;;;;5042390;28;20824;-80
2023/10/17 08:14:58;;;;;;;0.40;0.20;;;16.10;99.90;;;;;;5044101;28;20811;-82
2023/10/17 08:17:34;;;;;;;0.67;0.67;;;16.50;99.90;;;;;;5041238;28;20516;-82
2023/10/17 08:20:08;;;;;;;0.30;0.20;;;16.80;99.90;;;;;;5041064;28;20461;-82
2023/10/17 08:22:54;;;;;;;0.40;0.20;;;17.10;98.90;;;;;;5040845;28;20427;-81
2023/10/17 08:25:27;;;;;;;3.70;3.60;;;17.50;98.60;;;;;;5040428;28;20549;-81
2023/10/17 08:27:54;;;;;;;1.13;1.13;;;17.90;98.50;;;;;;5044620;28;20476;-79
2023/10/17 08:30:34;;;;;;;0.40;0.20;;;18.40;97.10;;;;;;5035712;28;20800;-81
2023/10/17 08:35:37;;;;;;;0.40;0.30;;;19.00;95.10;;;;;;5024556;28;20454;-81
2023/10/17 08:38:06;;;;;;;0.30;0.20;;;19.10;94.80;;;;;;5035537;28;21173;-81
2023/10/17 08:40:32;;;;;;;2.03;1.83;;;19.00;94.60;;;;;;5035241;28;20458;-81
2023/10/17 08:43:06;;;;;;;2.67;2.43;;;19.00;94.30;;;;;;5039935;28;20434;-81
2023/10/17 08:45:37;;;;;;;0.40;0.20;;;18.70;94.10;;;;;;5039352;28;20827;-80
2023/10/17 08:48:05;;;;;;;0.40;0.20;;;18.40;94.20;;;;;;5051737;28;20510;-80
2023/10/17 08:50:38;;;;;;;5.37;5.07;;;18.00;94.40;;;;;;5039515;28;20577;-80
2023/10/17 08:53:08;;;;;;;0.30;0.20;;;17.60;94.60;;;;;;5043590;28;20777;-80
2023/10/17 08:55:34;;;;;;;0.40;0.20;;;17.30;95.00;;;;;;5041373;28;20462;-80
2023/10/17 08:57:59;;;;;;;1.13;1.07;;;17.20;95.20;;;;;;5043425;28;20454;-80
2023/10/17 09:03:11;;;;;;;0.30;0.20;;;17.00;94.90;;;;;;5035002;28;20377;-80
2023/10/17 09:08:55;;;;;;;0.40;0.40;;;16.60;94.30;;;;;;5027375;28;20446;-80
2023/10/17 09:11:31;;;;;;;0.40;0.20;;;16.40;94.50;;;;;;5035751;28;20470;-81
2023/10/17 09:19:51;;;;;;;2.70;1.90;;;16.20;95.00;;;;;;5025764;28;20756;-80
2023/10/17 09:22:36;;;;;;;0.40;0.20;;;16.10;95.20;;;;;;5035994;28;20458;-80
2023/10/17 09:25:15;;;;;;;0.37;0.27;;;15.90;95.20;;;;;;5041445;28;20816;-80
2023/10/17 09:27:41;;;;;;;0.40;0.20;;;15.90;95.20;;;;;;5041454;28;20725;-80
2023/10/17 09:30:11;;;;;;;0.53;0.50;;;15.80;95.50;;;;;;5038080;28;20553;-80
2023/10/17 09:32:40;;;;;;;0.30;0.20;;;15.70;95.30;;;;;;5036922;28;20209;-79
2023/10/17 09:35:14;;;;;;;1.27;0.93;;;15.80;95.30;;;;;;5035336;28;20499;-79
2023/10/17 09:37:51;;;;;;;0.40;0.40;;;15.90;95.10;;;;;;5036125;28;21007;-80
2023/10/17 09:40:25;;;;;;;0.40;0.20;;;15.90;95.20;;;;;;5038327;28;20458;-79
2023/10/17 09:42:51;;;;;;;0.40;0.20;;;15.90;95.20;;;;;;5035027;28;20434;-80
2023/10/17 09:45:17;;;;;;;0.40;0.20;;;15.90;95.20;;;;;;5030683;28;20439;-79
2023/10/17 09:47:47;;;;;;;0.30;0.20;;;15.90;94.90;;;;;;5041205;28;20433;-80
2023/10/17 09:50:16;;;;;;;0.30;0.20;;;15.90;94.70;;;;;;5040905;28;20206;-79
2023/10/17 09:52:43;;;;;;;0.40;0.30;;;15.90;94.60;;;;;;5035723;28;20416;-80
2023/10/17 09:55:13;;;;;;;0.40;0.40;;;15.80;94.50;;;;;;5029611;28;20554;-79
2023/10/17 09:57:43;;;;;;;0.30;0.20;;;15.90;94.50;;;;;;5043133;28;20640;-80
2023/10/17 10:00:46;;;;;;;0.30;0.20;;;15.90;94.00;;;;;;5038160;28;20450;-79
2023/10/17 10:03:14;;;;;;;0.40;0.20;;;15.80;93.80;;;;;;5019952;28;21008;-80
2023/10/17 10:05:39;;;;;;;0.30;0.20;;;15.80;93.80;;;;;;5042026;28;20958;-79
2023/10/17 10:08:28;;;;;;;2.53;1.60;;;15.80;93.90;;;;;;5031602;28;20517;-80
2023/10/17 10:10:55;;;;;;;0.30;0.20;;;15.80;93.90;;;;;;5031116;28;20245;-80
2023/10/17 10:13:22;;;;;;;12.63;3.40;;;15.80;94.20;;;;;;5032320;28;20804;-79
2023/10/17 10:16:01;;;;;;;0.30;0.20;;;15.90;94.30;;;;;;5038392;28;20462;-79
2023/10/17 10:18:35;;;;;;;0.30;0.20;;;16.00;93.40;;;;;;5040841;28;20555;-79
2023/10/17 10:21:02;;;;;;;0.30;0.20;;;16.00;93.30;;;;;;5035153;28;20451;-80
2023/10/17 10:23:35;;;;;;;0.30;0.20;;;16.10;93.40;;;;;;5026600;28;20925;-80
2023/10/17 10:26:19;;;;;;;0.30;0.20;;;16.10;93.20;;;;;;5036168;28;20654;-80
2023/10/17 10:28:52;;;;;;;0.30;0.20;;;16.20;93.00;;;;;;5036347;28;20931;-80
2023/10/17 10:31:21;;;;;;;0.30;0.20;;;16.20;92.70;;;;;;5031903;28;20451;-80
2023/10/17 10:33:48;;;;;;;0.30;0.20;;;16.20;92.90;;;;;;5040978;28;20469;-80
2023/10/17 10:36:23;;;;;;;0.30;0.20;;;16.20;93.30;;;;;;5040621;28;20553;-80
2023/10/17 10:38:49;;;;;;;0.30;0.20;;;16.30;93.00;;;;;;5038550;28;20432;-80
2023/10/17 10:41:15;;;;;;;0.30;0.20;;;16.30;92.70;;;;;;5061493;28;20822;-80
2023/10/17 10:43:46;;;;;;;0.30;0.30;;;16.30;92.30;;;;;;5043352;28;20422;-80
2023/10/17 10:46:14;;;;;;;0.30;0.20;;;16.30;91.80;;;;;;5038816;28;20499;-81
2023/10/17 10:48:56;;;;;;;0.40;0.20;;;16.30;92.50;;;;;;5061650;28;20788;-80
2023/10/17 10:51:24;;;;;;;0.30;0.20;;;16.30;92.50;;;;;;5039347;28;20442;-80
2023/10/17 10:53:56;;;;;;;0.30;0.20;;;16.20;92.10;;;;;;5041159;28;20646;-79
2023/10/17 10:56:25;;;;;;;0.90;0.90;;;16.30;91.80;;;;;;5037543;28;20874;-79
2023/10/17 10:58:55;;;;;;;0.30;0.20;;;16.30;92.00;;;;;;5039042;28;21005;-80
2023/10/17 11:01:28;;;;;;;0.30;0.20;;;16.30;91.60;;;;;;5040202;28;21108;-79
2023/10/17 11:03:53;;;;;;;0.30;0.20;;;16.40;91.70;;;;;;5033881;28;20943;-79
2023/10/17 11:06:29;;;;;;;0.30;0.20;;;16.40;91.70;;;;;;5062486;28;20459;-79
2023/10/17 11:08:55;;;;;;;0.30;0.20;;;16.40;92.10;;;;;;5040276;28;20263;-81
2023/10/17 11:11:21;;;;;;;0.30;0.20;;;16.50;91.90;;;;;;5038632;28;20512;-80
2023/10/17 11:13:49;;;;;;;0.30;0.20;;;16.50;91.90;;;;;;5033404;28;20728;-79
2023/10/17 11:16:20;;;;;;;0.30;0.20;;;16.60;91.40;;;;;;5034973;28;20651;-80
2023/10/17 11:18:47;;;;;;;0.30;0.20;;;16.50;91.60;;;;;;5028055;28;20439;-80
2023/10/17 11:21:14;;;;;;;0.30;0.20;;;16.60;91.50;;;;;;5035990;28;20496;-79
2023/10/17 11:23:41;;;;;;;0.30;0.20;;;16.60;91.70;;;;;;5036971;28;20403;-79
2023/10/17 11:26:11;;;;;;;0.30;0.20;;;16.70;91.70;;;;;;5036521;28;20454;-80
2023/10/17 11:28:42;;;;;;;0.30;0.20;;;16.70;91.50;;;;;;5065592;28;20956;-79
2023/10/17 11:31:13;;;;;;;0.30;0.20;;;16.70;91.20;;;;;;5043218;28;20454;-80
2023/10/17 11:33:45;;;;;;;0.30;0.20;;;16.70;90.60;;;;;;5042174;28;20426;-81
2023/10/17 11:36:19;;;;;;;0.30;0.20;;;16.70;91.40;;;;;;5039230;28;20939;-80
2023/10/17 11:38:54;;;;;;;0.30;0.20;;;16.70;90.80;;;;;;5034691;28;20967;-80
2023/10/17 11:41:20;;;;;;;0.30;0.20;;;16.70;90.80;;;;;;5034322;28;20466;-80
2023/10/17 11:43:51;;;;;;;0.30;0.20;;;16.70;90.50;;;;;;5036140;28;20433;-80
2023/10/17 11:46:30;;;;;;;0.40;0.20;;;16.80;90.60;;;;;;5059959;28;20249;-80
2023/10/17 11:49:29;;;;;;;0.30;0.30;;;16.80;90.50;;;;;;5035737;28;20728;-79
2023/10/17 11:52:03;;;;;;;0.30;0.20;;;16.70;90.50;;;;;;5033826;28;20466;-80
2023/10/17 11:54:30;;;;;;;0.30;0.20;;;16.70;90.30;;;;;;5035718;28;20434;-80
2023/10/17 11:57:08;;;;;;;0.30;0.30;;;16.80;91.20;;;;;;5040014;28;20497;-80
2023/10/17 11:59:34;;;;;;;2.73;2.57;;;16.80;90.10;;;;;;5037844;28;20426;-79
2023/10/17 12:02:03;;;;;;;0.30;0.20;;;16.80;90.00;;;;;;5040805;28;20661;-79
2023/10/17 12:04:29;;;;;;;1.13;1.13;;;16.70;90.00;;;;;;5062810;28;20190;-80
2023/10/17 12:06:55;;;;;;;0.30;0.20;;;16.80;90.00;;;;;;5036451;28;22054;-80
2023/10/17 12:09:23;;;;;;;0.37;0.30;;;16.80;90.10;;;;;;5039948;28;21206;-80
2023/10/17 12:11:54;;;;;;;0.30;0.20;;;16.80;90.10;;;;;;5041957;28;20727;-78
2023/10/17 12:14:21;;;;;;;0.30;0.20;;;16.80;90.10;;;;;;5040974;28;20418;-81
2023/10/17 12:16:48;;;;;;;0.30;0.20;;;16.80;90.10;;;;;;5041055;28;20937;-79
2023/10/17 12:19:18;;;;;;;0.30;0.20;;;16.80;90.20;;;;;;5039604;28;20423;-79
2023/10/17 12:21:47;;;;;;;1.33;1.23;;;16.80;89.90;;;;;;5056675;28;20436;-79
2023/10/17 12:24:16;;;;;;;0.70;0.50;;;16.80;90.30;;;;;;5023352;28;21371;-80
2023/10/17 12:26:45;;;;;;;0.30;0.20;;;16.80;90.00;;;;;;5040332;28;20834;-79
2023/10/17 12:29:12;;;;;;;0.50;0.50;;;16.80;89.10;;;;;;5056443;28;20434;-81
2023/10/17 12:31:39;;;;;;;0.30;0.20;;;16.90;89.20;;;;;;5035421;28;20433;-80
2023/10/17 12:34:07;;;;;;;0.30;0.20;;;16.80;89.10;;;;;;5064897;28;20429;-79
2023/10/17 12:36:35;;;;;;;0.80;0.80;;;16.80;88.90;;;;;;5038391;28;20967;-79
2023/10/17 12:39:02;;;;;;;0.50;0.50;;;16.80;88.80;;;;;;5038211;28;20407;-80
2023/10/17 12:41:30;;;;;;;0.40;0.30;;;16.80;88.10;;;;;;5041858;28;20433;-79
2023/10/17 12:44:00;;;;;;;0.50;0.50;;;16.90;89.00;;;;;;5038704;28;20809;-81
2023/10/17 12:46:26;;;;;;;0.30;0.20;;;16.80;87.90;;;;;;5042587;28;20782;-80
2023/10/17 12:48:52;;;;;;;0.30;0.20;;;16.80;88.00;;;;;;5042143;28;20473;-79
2023/10/17 12:51:20;;;;;;;0.30;0.20;;;16.70;88.50;;;;;;5037613;28;20372;-79
2023/10/17 12:53:47;;;;;;;0.30;0.20;;;16.70;89.10;;;;;;5036501;28;20562;-79
2023/10/17 12:56:13;;;;;;;0.30;0.20;;;16.80;89.30;;;;;;5039708;28;20500;-80
2023/10/17 12:58:40;;;;;;;0.30;0.20;;;16.80;88.80;;;;;;5030917;28;20448;-79
2023/10/17 13:01:06;;;;;;;0.30;0.20;;;16.80;89.00;;;;;;5067344;28;20463;-80
2023/10/17 13:03:38;;;;;;;0.30;0.20;;;16.80;88.50;;;;;;5039412;28;20635;-79
2023/10/17 13:06:05;;;;;;;0.30;0.20;;;16.80;87.50;;;;;;5031971;28;20479;-79
2023/10/17 13:08:31;;;;;;;0.47;0.47;;;16.90;87.70;;;;;;5029522;28;20829;-80
2023/10/17 13:10:57;;;;;;;0.30;0.20;;;16.90;88.20;;;;;;5027219;28;20494;-80
2023/10/17 13:13:24;;;;;;;0.50;0.50;;;16.90;87.50;;;;;;5038214;28;20518;-79
2023/10/17 13:15:50;;;;;;;0.30;0.20;;;16.90;86.70;;;;;;5059882;28;20449;-80
2023/10/17 13:18:16;;;;;;;0.30;0.20;;;16.80;86.00;;;;;;5048421;28;20876;-81
2023/10/17 13:20:48;;;;;;;0.30;0.20;;;16.80;86.70;;;;;;5043227;28;20469;-81
2023/10/17 13:23:16;;;;;;;0.30;0.20;;;16.80;87.00;;;;;;5048100;28;20417;-79
2023/10/17 13:25:43;;;;;;;0.30;0.20;;;16.80;87.10;;;;;;5046020;28;20735;-80
2023/10/17 13:28:09;;;;;;;0.30;0.20;;;16.90;87.80;;;;;;5034431;28;20418;-80
2023/10/17 13:30:35;;;;;;;0.30;0.20;;;16.90;87.50;;;;;;5025869;28;20489;-80
2023/10/17 13:33:00;;;;;;;0.30;0.20;;;17.00;87.50;;;;;;5043405;28;20419;-80
2023/10/17 13:35:28;;;;;;;1.13;1.03;;;16.90;85.90;;;;;;5035985;28;20725;-80
2023/10/17 13:37:55;;;;;;;0.30;0.30;;;16.90;85.80;;;;;;5047600;28;20925;-80
2023/10/17 13:40:23;;;;;;;0.30;0.20;;;16.80;86.10;;;;;;5041924;28;20553;-79
2023/10/17 13:42:53;;;;;;;0.30;0.30;;;16.80;85.90;;;;;;5021215;28;20420;-80
2023/10/17 13:45:21;;;;;;;0.30;0.20;;;16.80;86.50;;;;;;5027337;28;20814;-79
2023/10/17 13:47:48;;;;;;;0.30;0.20;;;16.80;86.30;;;;;;5043161;28;20419;-80
2023/10/17 13:50:15;;;;;;;0.30;0.20;;;16.80;85.80;;;;;;5048653;28;20441;-80
2023/10/17 13:52:42;;;;;;;0.30;0.20;;;16.80;85.70;;;;;;5065085;28;20407;-79
2023/10/17 13:55:14;;;;;;;0.30;0.20;;;16.80;85.90;;;;;;5065079;28;20442;-80
2023/10/17 13:57:42;;;;;;;0.30;0.20;;;16.70;86.30;;;;;;5040643;28;20470;-80
2023/10/17 14:00:18;;;;;;;0.30;0.20;;;16.70;86.30;;;;;;5043888;28;20458;-80
2023/10/17 14:02:44;;;;;;;0.30;0.20;;;16.60;85.60;;;;;;5032477;28;20415;-79
2023/10/17 14:05:12;;;;;;;1.23;1.10;;;16.60;86.60;;;;;;5038381;28;20465;-80
2023/10/17 14:07:39;;;;;;;0.30;0.20;;;16.60;86.30;;;;;;5034014;28;20945;-80
2023/10/17 14:10:09;;;;;;;0.30;0.20;;;16.60;86.70;;;;;;5040087;28;20554;-80
2023/10/17 14:12:39;;;;;;;1.80;1.70;;;16.60;87.10;;;;;;5036104;28;20943;-80
2023/10/17 14:15:08;;;;;;;0.30;0.20;;;16.70;87.20;;;;;;5038213;28;20513;-81
2023/10/17 14:17:35;;;;;;;2.10;2.00;;;16.70;87.60;;;;;;5040251;28;20970;-80
2023/10/17 14:20:16;;;;;;;0.30;0.20;;;16.80;87.70;;;;;;5040447;28;20578;-80
2023/10/17 14:22:56;;;;;;;0.40;0.40;;;16.80;87.10;;;;;;5057828;28;20921;-80
2023/10/17 14:26:00;;;;;;;2.23;0.70;;;16.80;87.00;;;;;;5061416;28;20477;-80
2023/10/17 14:28:08;;;;;;;0.63;0.63;;;16.80;88.00;;;;;;5063960;28;20405;-79
2023/10/17 14:30:39;;;;;;;2.83;1.03;;;16.80;88.00;;;;;;5059619;28;20484;-80
2023/10/17 14:33:05;;;;;;;0.30;0.20;;;16.80;87.10;;;;;;5051385;28;20576;-81
2023/10/17 14:35:39;;;;;;;0.30;0.20;;;16.70;86.80;;;;;;5036749;28;20470;-80
2023/10/17 14:38:05;;;;;;;2.27;1.77;;;16.60;86.60;;;;;;5039517;28;20706;-79
2023/10/17 14:40:34;;;;;;;1.43;1.43;;;16.60;87.00;;;;;;5051375;28;20446;-80
2023/10/17 14:43:00;;;;;;;3.47;2.80;;;16.50;86.30;;;;;;5035468;28;20423;-79
2023/10/17 14:45:26;;;;;;;1.53;1.43;;;16.40;86.60;;;;;;5029011;28;20458;-80
2023/10/17 14:47:54;;;;;;;3.23;3.13;;;16.40;87.30;;;;;;5041842;28;20517;-80
2023/10/17 14:50:20;;;;;;;4.10;3.50;;;16.40;87.30;;;;;;5043742;28;20299;-79
2023/10/17 14:52:46;;;;;;;0.30;0.20;;;16.40;87.20;;;;;;5041185;28;20513;-80
2023/10/17 14:55:15;;;;;;;2.20;2.10;;;16.30;87.60;;;;;;5035632;28;20671;-80
2023/10/17 14:57:45;;;;;;;1.67;0.87;;;16.30;88.80;;;;;;5040342;28;20466;-78
2023/10/17 15:00:12;;;;;;;0.30;0.20;;;16.20;89.20;;;;;;5027848;28;21019;-78
2023/10/17 15:02:44;;;;;;;1.13;1.13;;;16.20;90.00;;;;;;5026089;28;20433;-78
2023/10/17 15:05:13;;;;;;;0.30;0.20;;;16.10;90.30;;;;;;5060715;28;20445;-80
2023/10/17 15:07:39;;;;;;;0.50;0.50;;;16.10;90.50;;;;;;5061305;28;20489;-78